TimeMST,TemperatureF,Dew PointF,Humidity,Sea Level PressureIn,VisibilityMPH,Wind Direction,Wind SpeedMPH,Gust SpeedMPH,PrecipitationIn,Events,Conditions,WindDirDegrees,DateUTC
12:53 AM,36.0,12.0,37,30.01,10.0,West,5.8,-,N/A,,Clear,260,2013-01-19 07:53:00
1:53 AM,39.0,10.9,32,30.02,10.0,WNW,15.0,24.2,N/A,,Clear,290,2013-01-19 08:53:00
2:53 AM,39.0,10.9,32,30.04,10.0,WNW,15.0,-,N/A,,Clear,290,2013-01-19 09:53:00
3:53 AM,34.0,12.0,40,30.09,10.0,NW,11.5,-,N/A,,Clear,310,2013-01-19 10:53:00
4:53 AM,34.0,12.0,40,30.13,10.0,NW,9.2,-,N/A,,Clear,320,2013-01-19 11:53:00
5:53 AM,32.0,10.9,42,30.17,10.0,NW,8.1,-,N/A,,Clear,310,2013-01-19 12:53:00
6:53 AM,28.0,10.9,49,30.21,10.0,WNW,8.1,-,N/A,,Clear,300,2013-01-19 13:53:00
7:53 AM,27.0,10.9,51,30.22,10.0,West,5.8,-,N/A,,Clear,270,2013-01-19 14:53:00
8:53 AM,30.0,12.9,49,30.24,10.0,SW,4.6,-,N/A,,Clear,220,2013-01-19 15:53:00
9:53 AM,39.0,12.9,34,30.23,10.0,West,9.2,-,N/A,,Clear,280,2013-01-19 16:53:00
10:53 AM,48.0,10.9,22,30.20,10.0,WNW,9.2,-,N/A,,Clear,290,2013-01-19 17:53:00
11:53 AM,51.1,8.1,18,30.16,10.0,West,17.3,23.0,N/A,,Clear,270,2013-01-19 18:53:00
12:53 PM,53.1,7.0,16,30.14,10.0,WNW,15.0,-,N/A,,Clear,300,2013-01-19 19:53:00
1:53 PM,54.0,8.1,16,30.12,10.0,WNW,10.4,19.6,N/A,,Clear,300,2013-01-19 20:53:00
2:53 PM,53.1,8.1,16,30.12,10.0,West,11.5,-,N/A,,Clear,270,2013-01-19 21:53:00
3:53 PM,52.0,8.1,17,30.14,10.0,West,8.1,-,N/A,,Clear,270,2013-01-19 22:53:00
4:53 PM,44.1,14.0,30,30.19,10.0,NE,4.6,-,N/A,,Clear,50,2013-01-19 23:53:00
5:53 PM,34.0,18.0,52,30.24,10.0,NE,10.4,-,N/A,,Clear,40,2013-01-20 00:53:00
6:53 PM,35.1,19.0,52,30.27,10.0,Calm,Calm,-,N/A,,Clear,0,2013-01-20 01:53:00
7:53 PM,30.9,18.0,59,30.28,10.0,Calm,Calm,-,N/A,,Clear,0,2013-01-20 02:53:00
8:53 PM,28.0,19.0,69,30.27,10.0,ENE,9.2,-,N/A,,Clear,70,2013-01-20 03:53:00
9:53 PM,28.9,21.0,72,30.24,10.0,ESE,4.6,-,N/A,,Clear,120,2013-01-20 04:53:00
10:53 PM,27.0,21.0,78,30.19,10.0,East,9.2,-,N/A,,Clear,100,2013-01-20 05:53:00
11:53 PM,24.1,19.9,84,30.16,10.0,ESE,6.9,-,N/A,,Clear,110,2013-01-20 06:53:00